This is the latest recevied weather packets stored in our database for station/object ANJALA. If no packets are shown the sender has not sent any weather packets the latest 10 day(s).
| Time | Temp. | Humidity | Pressure | Rain* | Wind** | Luminosity | Snow |
|---|---|---|---|---|---|---|---|
| 1777576012 | 9.44° C | 77% | - | 0 mm | - | - | - |
| 1777573612 | 9.44° C | 75% | - | 0 mm | - | - | - |
| 1777572412 | 9.44° C | 73% | - | 0 mm | - | - | - |
| 1777571212 | 8.89° C | 76% | - | 0 mm | - | - | - |
| 1777568812 | 11.11° C | 66% | - | 0 mm | - | - | - |
| 1777562811 | 13.33° C | 56% | - | 0 mm | - | - | - |
| 1777555611 | 11.67° C | 61% | - | 0 mm | - | - | - |
| 1777554411 | 11.67° C | 61% | - | 0 mm | - | - | - |
| 1777552011 | 11.11° C | 63% | - | 0 mm | - | - | - |
| 1777550811 | 11.11° C | 62% | - | 0 mm | - | - | - |
| 1777544810 | 8.89° C | 67% | - | 0 mm | - | - | - |
| 1777543610 | 8.33° C | 69% | - | 0 mm | - | - | - |
| 1777541210 | 6.11° C | 72% | - | 0 mm | - | - | - |
| 1777540010 | 6.11° C | 72% | - | 0 mm | - | - | - |
| 1777538810 | 5.56° C | 73% | - | 0 mm | - | - | - |
| 1777537610 | 5° C | 74% | - | 0 mm | - | - | - |
| 1777536410 | 5° C | 70% | - | 0 mm | - | - | - |
| 1777534010 | 4.44° C | 68% | - | 0 mm | - | - | - |
| 1777532810 | 4.44° C | 67% | - | 0 mm | - | - | - |
| 1777531610 | 3.89° C | 66% | - | 0 mm | - | - | - |
| 1777530410 | 3.89° C | 67% | - | 0 mm | - | - | - |
| 1777529209 | 3.33° C | 66% | - | 0 mm | - | - | - |
| 1777528009 | 3.33° C | 66% | - | 0 mm | - | - | - |
| 1777526809 | 2.78° C | 64% | - | 0 mm | - | - | - |
| 1777525609 | 2.22° C | 64% | - | 0 mm | - | - | - |
* Rain latest hour (hover to see other rain measurements)
** Current wind speed in m/s (hover to see current wind gust speed)